Time;durP1;ratioP1;P1;durP2;ratioP2;P2;SDS_P1;SDS_P2;PMS_P1;PMS_P2;Temp;Humidity;BMP_temperature;BMP_pressure;BME280_temperature;BME280_humidity;BME280_pressure;Samples;Min_cycle;Max_cycle;Signal;HPM_P1;HPM_P2
2023/08/27 00:00:08;;;;;;;10.47;8.33;;;;;;;;;;5155533;27;20196;-84
2023/08/27 00:02:36;;;;;;;11.60;9.30;;;;;;;;;;5156822;27;20201;-84
2023/08/27 00:05:07;;;;;;;15.83;11.10;;;;;;;;;;5156557;27;20208;-84
2023/08/27 00:07:36;;;;;;;12.60;10.93;;;;;;;;;;5155597;27;20193;-85
2023/08/27 00:10:07;;;;;;;8.90;7.43;;;;;;;;;;5156594;27;20202;-84
2023/08/27 00:12:36;;;;;;;16.83;10.73;;;;;;;;;;5155800;27;20216;-84
2023/08/27 00:15:04;;;;;;;13.20;10.20;;;;;;;;;;5156001;27;20226;-84
2023/08/27 00:17:33;;;;;;;13.60;7.73;;;;;;;;;;5155602;27;20198;-84
2023/08/27 00:20:04;;;;;;;9.00;6.43;;;;;;;;;;5156642;27;20190;-84
2023/08/27 00:22:32;;;;;;;11.97;9.67;;;;;;;;;;5156508;27;20201;-84
2023/08/27 00:25:01;;;;;;;7.17;6.43;;;;;;;;;;5155653;27;20208;-85
2023/08/27 00:27:30;;;;;;;10.60;9.50;;;;;;;;;;5156455;27;20211;-84
2023/08/27 00:29:59;;;;;;;7.27;6.53;;;;;;;;;;5155962;27;20225;-84
2023/08/27 00:32:28;;;;;;;12.73;11.17;;;;;;;;;;5155811;27;20206;-84
2023/08/27 00:34:56;;;;;;;5.87;5.37;;;;;;;;;;5155437;27;20186;-84
2023/08/27 00:37:25;;;;;;;13.23;11.77;;;;;;;;;;5155740;27;20198;-85
2023/08/27 00:39:54;;;;;;;11.13;9.97;;;;;;;;;;5156078;27;20263;-84
2023/08/27 00:42:22;;;;;;;9.17;7.97;;;;;;;;;;5155199;27;20206;-84
2023/08/27 00:44:52;;;;;;;14.53;10.73;;;;;;;;;;5155639;27;20193;-85
2023/08/27 00:47:21;;;;;;;17.30;14.03;;;;;;;;;;5155757;27;20206;-84
2023/08/27 00:49:50;;;;;;;15.13;13.30;;;;;;;;;;5155656;27;20262;-85
2023/08/27 00:52:19;;;;;;;12.03;10.67;;;;;;;;;;5154996;27;20244;-84
2023/08/27 00:54:48;;;;;;;11.27;9.77;;;;;;;;;;5155667;27;20201;-84
2023/08/27 00:57:16;;;;;;;12.47;10.30;;;;;;;;;;5155497;27;20228;-84
2023/08/27 00:59:45;;;;;;;13.13;11.00;;;;;;;;;;5155368;27;20193;-88
2023/08/27 01:02:15;;;;;;;12.20;11.00;;;;;;;;;;5155774;27;20197;-88
2023/08/27 01:04:44;;;;;;;18.97;12.43;;;;;;;;;;5155895;27;20189;-89
2023/08/27 01:07:16;;;;;;;12.57;10.20;;;;;;;;;;5155659;27;20193;-89
2023/08/27 01:09:47;;;;;;;13.70;12.13;;;;;;;;;;5155209;27;20221;-84
2023/08/27 01:12:31;;;;;;;5.17;4.73;;;;;;;;;;5155335;27;20196;-84
2023/08/27 01:15:00;;;;;;;10.83;9.30;;;;;;;;;;5155196;27;20202;-84
2023/08/27 01:17:29;;;;;;;14.33;11.73;;;;;;;;;;5154620;27;20268;-84
2023/08/27 01:19:58;;;;;;;13.73;9.17;;;;;;;;;;5155169;27;20191;-84
2023/08/27 01:22:29;;;;;;;14.00;9.27;;;;;;;;;;5155304;27;20213;-84
2023/08/27 01:24:58;;;;;;;14.27;10.37;;;;;;;;;;5155093;27;20198;-89
2023/08/27 01:27:30;;;;;;;13.33;11.93;;;;;;;;;;5154820;27;20204;-89
2023/08/27 01:30:03;;;;;;;16.20;9.50;;;;;;;;;;5154929;27;20206;-89
2023/08/27 01:32:34;;;;;;;11.70;8.00;;;;;;;;;;5155042;27;20224;-89
2023/08/27 01:35:04;;;;;;;11.70;9.53;;;;;;;;;;5155135;27;20201;-89
2023/08/27 01:37:34;;;;;;;12.27;10.07;;;;;;;;;;5154885;27;20201;-89
2023/08/27 01:40:05;;;;;;;9.23;8.23;;;;;;;;;;5155555;27;20418;-89
2023/08/27 01:42:35;;;;;;;13.97;9.63;;;;;;;;;;5155275;27;20198;-89
2023/08/27 01:45:04;;;;;;;14.50;7.40;;;;;;;;;;5154691;27;20261;-89
2023/08/27 01:47:32;;;;;;;13.33;9.40;;;;;;;;;;5155019;27;20223;-89
2023/08/27 01:50:01;;;;;;;10.93;9.63;;;;;;;;;;5154996;27;20221;-88
2023/08/27 01:52:29;;;;;;;13.90;11.17;;;;;;;;;;5154175;27;20225;-88
2023/08/27 01:54:59;;;;;;;9.63;7.40;;;;;;;;;;5154033;27;20200;-89
2023/08/27 01:57:28;;;;;;;8.43;7.37;;;;;;;;;;5154566;27;20220;-89
2023/08/27 01:59:56;;;;;;;11.80;8.90;;;;;;;;;;5154135;27;20185;-89
2023/08/27 02:02:25;;;;;;;14.23;9.00;;;;;;;;;;5153768;27;20193;-89
2023/08/27 02:04:53;;;;;;;12.10;9.50;;;;;;;;;;5154551;27;20292;-89
2023/08/27 02:07:22;;;;;;;9.97;8.53;;;;;;;;;;5154468;27;20205;-89
2023/08/27 02:09:50;;;;;;;5.43;4.90;;;;;;;;;;5154688;27;20225;-89
2023/08/27 02:12:20;;;;;;;12.00;9.73;;;;;;;;;;5154421;27;20203;-89
2023/08/27 02:14:49;;;;;;;9.53;7.03;;;;;;;;;;5154110;27;20194;-89
2023/08/27 02:17:17;;;;;;;10.70;7.27;;;;;;;;;;5154120;27;20194;-89
2023/08/27 02:19:45;;;;;;;8.10;3.73;;;;;;;;;;5154026;27;20194;-89
2023/08/27 02:22:14;;;;;;;2.17;1.97;;;;;;;;;;5154058;27;20202;-89
2023/08/27 02:24:43;;;;;;;4.60;3.87;;;;;;;;;;5154111;27;20205;-84
2023/08/27 02:27:12;;;;;;;16.63;5.77;;;;;;;;;;5153717;27;20206;-84
2023/08/27 02:29:42;;;;;;;7.80;4.27;;;;;;;;;;5152865;27;20203;-84
2023/08/27 02:32:10;;;;;;;10.70;7.13;;;;;;;;;;5153628;27;20221;-84
2023/08/27 02:34:38;;;;;;;8.80;6.70;;;;;;;;;;5153725;27;20199;-84
2023/08/27 02:37:07;;;;;;;7.23;5.43;;;;;;;;;;5153535;27;20202;-84
2023/08/27 02:39:35;;;;;;;13.70;6.97;;;;;;;;;;5152979;27;20187;-84
2023/08/27 02:42:04;;;;;;;7.33;5.60;;;;;;;;;;5153497;27;20198;-84
2023/08/27 02:44:32;;;;;;;8.33;5.80;;;;;;;;;;5153778;27;20197;-84
2023/08/27 02:47:03;;;;;;;4.63;4.23;;;;;;;;;;5152415;27;20195;-84
2023/08/27 02:49:31;;;;;;;6.83;6.13;;;;;;;;;;5153803;27;20226;-84
2023/08/27 02:52:00;;;;;;;8.80;6.43;;;;;;;;;;5153240;27;20237;-84
2023/08/27 02:54:28;;;;;;;4.93;3.33;;;;;;;;;;5153445;27;20213;-89
2023/08/27 02:56:57;;;;;;;6.83;5.63;;;;;;;;;;5152937;27;20323;-89
2023/08/27 02:59:25;;;;;;;7.93;5.50;;;;;;;;;;5153192;27;20198;-89
2023/08/27 03:01:54;;;;;;;9.27;7.07;;;;;;;;;;5153906;27;20300;-89
2023/08/27 03:04:24;;;;;;;4.57;3.03;;;;;;;;;;5153205;27;20213;-89
2023/08/27 03:06:52;;;;;;;5.80;5.23;;;;;;;;;;5153990;27;20225;-89
2023/08/27 03:09:20;;;;;;;5.90;5.27;;;;;;;;;;5153366;27;20200;-84
2023/08/27 03:11:49;;;;;;;6.43;5.30;;;;;;;;;;5152782;27;20233;-85
2023/08/27 03:14:18;;;;;;;5.60;4.27;;;;;;;;;;5152824;27;20208;-84
2023/08/27 03:16:46;;;;;;;5.30;1.70;;;;;;;;;;5152909;27;20194;-84
2023/08/27 03:19:15;;;;;;;2.37;1.50;;;;;;;;;;5153178;27;20408;-84
2023/08/27 03:21:44;;;;;;;1.00;1.00;;;;;;;;;;5153012;27;20210;-84
2023/08/27 03:24:13;;;;;;;0.83;0.83;;;;;;;;;;5152858;27;20260;-85
2023/08/27 03:26:42;;;;;;;1.57;1.20;;;;;;;;;;5152860;27;20202;-85
2023/08/27 03:29:10;;;;;;;3.37;1.10;;;;;;;;;;5153102;27;20206;-84
2023/08/27 03:31:38;;;;;;;1.37;1.10;;;;;;;;;;5152627;27;20244;-89
2023/08/27 03:34:07;;;;;;;1.60;0.63;;;;;;;;;;5155073;27;20214;-89
2023/08/27 03:36:35;;;;;;;2.80;2.60;;;;;;;;;;5157696;27;20203;-90
2023/08/27 03:39:05;;;;;;;1.27;1.17;;;;;;;;;;5156564;27;20209;-89
2023/08/27 03:41:34;;;;;;;0.60;0.60;;;;;;;;;;5156997;27;20209;-89
2023/08/27 03:44:02;;;;;;;0.70;0.67;;;;;;;;;;5157081;27;20210;-89
2023/08/27 03:46:31;;;;;;;0.90;0.90;;;;;;;;;;5157034;27;20229;-89
2023/08/27 03:49:00;;;;;;;0.80;0.80;;;;;;;;;;5156379;27;20234;-89
2023/08/27 03:51:29;;;;;;;1.90;1.83;;;;;;;;;;5156779;27;20236;-88
2023/08/27 03:53:59;;;;;;;0.50;0.50;;;;;;;;;;5156880;27;20328;-89
2023/08/27 03:56:29;;;;;;;2.50;1.33;;;;;;;;;;5156126;27;20186;-89
2023/08/27 03:58:58;;;;;;;3.93;1.30;;;;;;;;;;5156689;27;20194;-90
2023/08/27 04:01:26;;;;;;;5.60;2.00;;;;;;;;;;5156763;27;20229;-89
2023/08/27 04:03:55;;;;;;;8.17;1.70;;;;;;;;;;5157108;27;20228;-89
2023/08/27 04:06:24;;;;;;;5.40;1.63;;;;;;;;;;5155848;27;20295;-88
2023/08/27 04:08:52;;;;;;;6.23;2.20;;;;;;;;;;5156600;27;20224;-88
2023/08/27 04:11:21;;;;;;;4.37;1.83;;;;;;;;;;5156872;27;20265;-88
2023/08/27 04:13:51;;;;;;;6.60;3.17;;;;;;;;;;5156731;27;20197;-88
2023/08/27 04:16:19;;;;;;;7.50;2.30;;;;;;;;;;5156062;27;20226;-88
2023/08/27 04:18:48;;;;;;;4.03;2.00;;;;;;;;;;5156689;27;20199;-88
2023/08/27 04:21:16;;;;;;;0.50;0.50;;;;;;;;;;5156289;27;20200;-88
2023/08/27 04:23:45;;;;;;;2.30;0.63;;;;;;;;;;5156199;27;20208;-84
2023/08/27 04:26:15;;;;;;;4.53;1.67;;;;;;;;;;5155671;27;20197;-84
2023/08/27 04:28:44;;;;;;;1.43;1.33;;;;;;;;;;5156097;27;20286;-85
2023/08/27 04:31:15;;;;;;;5.90;1.50;;;;;;;;;;5156029;27;20224;-84
2023/08/27 04:33:43;;;;;;;2.97;1.37;;;;;;;;;;5155496;27;20235;-85
2023/08/27 04:36:12;;;;;;;4.23;1.80;;;;;;;;;;5156019;27;20205;-88
2023/08/27 04:38:42;;;;;;;1.30;1.10;;;;;;;;;;5156179;27;20201;-88
2023/08/27 04:41:11;;;;;;;1.17;0.77;;;;;;;;;;5156001;27;20255;-88
2023/08/27 04:43:39;;;;;;;0.50;0.50;;;;;;;;;;5155700;27;20198;-88
2023/08/27 04:46:08;;;;;;;3.73;1.17;;;;;;;;;;5155713;27;20204;-89
2023/08/27 04:48:38;;;;;;;2.90;1.17;;;;;;;;;;5156110;27;20248;-88
2023/08/27 04:51:07;;;;;;;0.93;0.93;;;;;;;;;;5155898;27;20235;-88
2023/08/27 04:53:36;;;;;;;0.70;0.70;;;;;;;;;;5155545;27;20232;-88
2023/08/27 04:56:04;;;;;;;1.03;0.70;;;;;;;;;;5155277;27;20213;-88
2023/08/27 04:58:33;;;;;;;2.60;1.20;;;;;;;;;;5155239;27;20194;-88
2023/08/27 05:01:02;;;;;;;2.87;1.27;;;;;;;;;;5155599;27;20200;-88
2023/08/27 05:03:30;;;;;;;3.93;1.40;;;;;;;;;;5155673;27;20197;-88
2023/08/27 05:06:00;;;;;;;1.47;1.20;;;;;;;;;;5155357;27;20252;-84
2023/08/27 05:08:28;;;;;;;5.53;1.87;;;;;;;;;;5154655;27;20196;-84
2023/08/27 05:10:57;;;;;;;1.97;1.40;;;;;;;;;;5155290;27;20220;-85
2023/08/27 05:13:26;;;;;;;3.37;1.57;;;;;;;;;;5155587;27;20193;-84
2023/08/27 05:15:54;;;;;;;3.33;1.67;;;;;;;;;;5155152;27;20207;-85
2023/08/27 05:18:23;;;;;;;4.43;1.47;;;;;;;;;;5155140;27;20200;-88
2023/08/27 05:20:51;;;;;;;2.70;1.30;;;;;;;;;;5155319;27;20202;-84
2023/08/27 05:23:22;;;;;;;2.07;1.20;;;;;;;;;;5154960;27;20195;-84
2023/08/27 05:25:51;;;;;;;1.30;1.20;;;;;;;;;;5154538;27;20199;-84
2023/08/27 05:28:19;;;;;;;4.63;1.37;;;;;;;;;;5154479;27;20226;-85
2023/08/27 05:30:48;;;;;;;2.77;1.27;;;;;;;;;;5155078;27;20212;-84
2023/08/27 05:33:16;;;;;;;1.43;1.33;;;;;;;;;;5154574;27;20199;-84
2023/08/27 05:35:45;;;;;;;4.23;1.33;;;;;;;;;;5154229;27;20192;-89
2023/08/27 05:38:13;;;;;;;1.30;1.20;;;;;;;;;;5154680;27;20221;-88
2023/08/27 05:40:44;;;;;;;1.63;1.43;;;;;;;;;;5155071;27;20257;-88
2023/08/27 05:43:13;;;;;;;0.80;0.80;;;;;;;;;;5154125;27;20199;-88
2023/08/27 05:45:41;;;;;;;2.83;1.37;;;;;;;;;;5154632;27;20204;-88
2023/08/27 05:48:10;;;;;;;3.10;1.50;;;;;;;;;;5154554;27;20207;-88
2023/08/27 05:50:38;;;;;;;0.90;0.90;;;;;;;;;;5154519;27;20265;-88
2023/08/27 05:53:07;;;;;;;4.03;1.60;;;;;;;;;;5153807;27;20235;-88
2023/08/27 05:55:36;;;;;;;1.60;1.50;;;;;;;;;;5154297;27;20207;-88
2023/08/27 05:58:06;;;;;;;1.43;1.20;;;;;;;;;;5153973;27;20200;-88
2023/08/27 06:00:34;;;;;;;2.43;1.30;;;;;;;;;;5154180;27;20200;-87
2023/08/27 06:03:03;;;;;;;1.67;1.30;;;;;;;;;;5154603;27;20218;-88
2023/08/27 06:05:32;;;;;;;2.63;1.37;;;;;;;;;;5154674;27;20191;-88
2023/08/27 06:08:02;;;;;;;1.73;1.50;;;;;;;;;;5154468;27;20249;-88
2023/08/27 06:10:31;;;;;;;1.73;1.20;;;;;;;;;;5154003;27;20304;-88
2023/08/27 06:13:00;;;;;;;2.97;1.50;;;;;;;;;;5154545;27;20211;-89
2023/08/27 06:15:34;;;;;;;3.33;1.40;;;;;;;;;;5153935;27;20200;-88
2023/08/27 06:18:03;;;;;;;2.57;1.40;;;;;;;;;;5153936;27;20201;-88
2023/08/27 06:20:33;;;;;;;3.27;1.20;;;;;;;;;;5153709;27;20228;-89
2023/08/27 06:23:02;;;;;;;3.20;1.53;;;;;;;;;;5154425;27;20203;-88
2023/08/27 06:25:33;;;;;;;1.03;0.97;;;;;;;;;;5154041;27;20215;-89
2023/08/27 06:28:03;;;;;;;1.23;1.00;;;;;;;;;;5153794;27;20204;-88
2023/08/27 06:30:33;;;;;;;2.10;1.37;;;;;;;;;;5153910;27;20211;-89
2023/08/27 06:33:03;;;;;;;3.00;1.30;;;;;;;;;;5153907;27;20219;-87
2023/08/27 06:35:32;;;;;;;1.43;1.17;;;;;;;;;;5154078;27;20249;-88
2023/08/27 06:38:00;;;;;;;1.07;1.00;;;;;;;;;;5154208;27;20198;-88
2023/08/27 06:40:29;;;;;;;2.80;1.20;;;;;;;;;;5154197;27;20291;-87
2023/08/27 06:42:58;;;;;;;2.33;1.13;;;;;;;;;;5153852;27;20201;-89
2023/08/27 06:45:27;;;;;;;1.10;1.00;;;;;;;;;;5153656;27;20204;-88
2023/08/27 06:47:57;;;;;;;1.53;1.23;;;;;;;;;;5153788;27;20198;-88
2023/08/27 06:50:27;;;;;;;1.60;0.90;;;;;;;;;;5153842;27;20205;-89
2023/08/27 06:52:55;;;;;;;1.80;1.20;;;;;;;;;;5153138;27;20260;-88
2023/08/27 06:55:24;;;;;;;1.87;1.00;;;;;;;;;;5153030;27;20208;-88
2023/08/27 06:57:52;;;;;;;1.70;1.10;;;;;;;;;;5153872;27;20202;-89
2023/08/27 07:00:21;;;;;;;4.53;1.63;;;;;;;;;;5153699;27;20208;-89
2023/08/27 07:02:49;;;;;;;0.77;0.73;;;;;;;;;;5153413;27;20242;-89
2023/08/27 07:05:19;;;;;;;1.70;1.50;;;;;;;;;;5153429;27;20210;-89
2023/08/27 07:07:48;;;;;;;2.80;1.50;;;;;;;;;;5154247;27;20254;-88
2023/08/27 07:10:17;;;;;;;1.17;1.07;;;;;;;;;;5158399;27;20242;-89
2023/08/27 07:12:49;;;;;;;2.83;1.23;;;;;;;;;;5157211;27;20232;-84
2023/08/27 07:15:17;;;;;;;2.60;1.30;;;;;;;;;;5157645;27;20205;-84
2023/08/27 07:17:46;;;;;;;4.93;1.73;;;;;;;;;;5157558;27;20205;-85
2023/08/27 07:20:14;;;;;;;2.30;1.23;;;;;;;;;;5157590;27;20277;-86
2023/08/27 07:22:44;;;;;;;1.63;1.17;;;;;;;;;;5157253;27;20194;-85
2023/08/27 07:25:13;;;;;;;0.73;0.73;;;;;;;;;;5157522;27;20202;-84
2023/08/27 07:27:45;;;;;;;2.13;1.93;;;;;;;;;;5157062;27;20238;-85
2023/08/27 07:30:14;;;;;;;2.10;1.60;;;;;;;;;;5156714;27;20198;-84
2023/08/27 07:32:42;;;;;;;0.90;0.90;;;;;;;;;;5156964;27;20218;-84
2023/08/27 07:35:11;;;;;;;1.30;1.20;;;;;;;;;;5157263;27;20261;-84
2023/08/27 07:37:39;;;;;;;4.80;2.13;;;;;;;;;;5156547;27;20193;-84
2023/08/27 07:40:10;;;;;;;3.50;1.77;;;;;;;;;;5156673;27;20198;-84
2023/08/27 07:42:39;;;;;;;5.10;1.17;;;;;;;;;;5157047;27;20258;-84
2023/08/27 07:45:08;;;;;;;1.83;1.30;;;;;;;;;;5156785;27;20199;-85
2023/08/27 07:47:37;;;;;;;3.03;1.87;;;;;;;;;;5156462;27;20209;-84
2023/08/27 07:50:07;;;;;;;1.07;1.00;;;;;;;;;;5156968;27;20198;-84
2023/08/27 07:52:35;;;;;;;2.50;1.63;;;;;;;;;;5156491;27;20222;-85
2023/08/27 07:55:04;;;;;;;1.53;1.27;;;;;;;;;;5156608;27;20200;-84
2023/08/27 07:57:34;;;;;;;3.23;2.30;;;;;;;;;;5156269;27;20439;-84
2023/08/27 08:00:03;;;;;;;1.40;1.30;;;;;;;;;;5156534;27;20199;-85
2023/08/27 08:02:31;;;;;;;3.27;1.50;;;;;;;;;;5156654;27;20205;-84
2023/08/27 08:05:01;;;;;;;1.37;1.23;;;;;;;;;;5156045;27;20191;-85
2023/08/27 08:07:29;;;;;;;1.77;1.50;;;;;;;;;;5156379;27;20211;-85
2023/08/27 08:09:58;;;;;;;1.50;1.37;;;;;;;;;;5156369;27;20468;-84
2023/08/27 08:12:26;;;;;;;1.67;1.57;;;;;;;;;;5156124;27;20234;-84
2023/08/27 08:14:56;;;;;;;0.83;0.83;;;;;;;;;;5155691;27;20206;-85
2023/08/27 08:17:25;;;;;;;7.90;1.70;;;;;;;;;;5156538;27;20195;-84
2023/08/27 08:20:11;;;;;;;0.83;0.83;;;;;;;;;;5155954;27;20238;-84
2023/08/27 08:22:40;;;;;;;1.30;1.20;;;;;;;;;;5156132;27;20199;-85
2023/08/27 08:25:08;;;;;;;1.83;1.73;;;;;;;;;;5156360;27;20211;-85
2023/08/27 08:27:37;;;;;;;1.00;1.00;;;;;;;;;;5156552;27;20195;-89
2023/08/27 08:30:08;;;;;;;1.00;0.90;;;;;;;;;;5156425;27;20198;-88
2023/08/27 08:32:36;;;;;;;2.60;1.43;;;;;;;;;;5155951;27;20211;-89
2023/08/27 08:35:05;;;;;;;4.43;1.40;;;;;;;;;;5155866;27;20191;-89
2023/08/27 08:37:33;;;;;;;2.20;1.20;;;;;;;;;;5156165;27;20213;-89
2023/08/27 08:40:02;;;;;;;2.30;1.10;;;;;;;;;;5156193;27;20210;-84
2023/08/27 08:42:33;;;;;;;0.73;0.73;;;;;;;;;;5155392;27;20203;-84
2023/08/27 08:45:06;;;;;;;2.20;1.40;;;;;;;;;;5155640;27;20207;-84
2023/08/27 08:47:37;;;;;;;2.30;0.97;;;;;;;;;;5155603;27;20199;-84
2023/08/27 08:50:08;;;;;;;3.43;1.20;;;;;;;;;;5155463;27;20195;-85
2023/08/27 08:52:39;;;;;;;1.17;1.07;;;;;;;;;;5155575;27;20329;-84
2023/08/27 08:55:09;;;;;;;0.90;0.90;;;;;;;;;;5155916;27;20206;-84
2023/08/27 08:57:39;;;;;;;4.37;1.47;;;;;;;;;;5155124;27;20224;-85
2023/08/27 09:00:11;;;;;;;5.73;5.17;;;;;;;;;;5155153;27;20199;-84
2023/08/27 09:02:42;;;;;;;2.53;1.00;;;;;;;;;;5155124;27;20199;-85
2023/08/27 09:05:11;;;;;;;3.77;0.80;;;;;;;;;;5155492;27;20199;-85
2023/08/27 09:07:40;;;;;;;1.10;0.77;;;;;;;;;;5154916;27;20195;-85
2023/08/27 09:10:12;;;;;;;1.10;1.00;;;;;;;;;;5155030;27;20202;-85
2023/08/27 09:12:41;;;;;;;2.20;2.10;;;;;;;;;;5155677;27;20199;-89
2023/08/27 09:15:10;;;;;;;0.50;0.50;;;;;;;;;;5155317;27;20210;-90
2023/08/27 09:17:38;;;;;;;0.60;0.60;;;;;;;;;;5155026;27;20210;-89
2023/08/27 09:20:09;;;;;;;1.60;0.70;;;;;;;;;;5155545;27;20212;-89
2023/08/27 09:22:38;;;;;;;0.40;0.40;;;;;;;;;;5155590;27;20194;-89
2023/08/27 09:25:07;;;;;;;0.30;0.30;;;;;;;;;;5154724;27;20287;-85
2023/08/27 09:27:36;;;;;;;0.50;0.50;;;;;;;;;;5154729;27;20199;-85
2023/08/27 09:30:05;;;;;;;0.70;0.70;;;;;;;;;;5154885;27;20199;-85
2023/08/27 09:32:34;;;;;;;1.33;0.80;;;;;;;;;;5153281;27;20184;-85
2023/08/27 09:35:03;;;;;;;2.83;1.00;;;;;;;;;;5154071;27;20242;-84
2023/08/27 09:37:40;;;;;;;2.50;0.80;;;;;;;;;;5154558;27;20246;-85
2023/08/27 09:40:09;;;;;;;0.73;0.73;;;;;;;;;;5154672;27;20190;-84
2023/08/27 09:42:39;;;;;;;0.50;0.50;;;;;;;;;;5154901;27;20231;-84
2023/08/27 09:45:08;;;;;;;0.83;0.70;;;;;;;;;;5154178;27;20203;-84
2023/08/27 09:47:37;;;;;;;1.20;1.10;;;;;;;;;;5154380;27;20198;-83
2023/08/27 09:50:06;;;;;;;3.90;0.97;;;;;;;;;;5154807;27;20213;-85
2023/08/27 09:52:35;;;;;;;1.60;1.00;;;;;;;;;;5153709;27;20349;-85
2023/08/27 09:55:05;;;;;;;0.77;0.77;;;;;;;;;;5154195;27;20210;-84
2023/08/27 09:57:34;;;;;;;0.87;0.80;;;;;;;;;;5154263;27;20199;-84
2023/08/27 10:00:08;;;;;;;1.07;1.00;;;;;;;;;;5153866;27;20195;-85
2023/08/27 10:02:37;;;;;;;0.93;0.70;;;;;;;;;;5154007;27;20226;-85
2023/08/27 10:05:09;;;;;;;0.67;0.67;;;;;;;;;;5154290;27;20287;-85
2023/08/27 10:07:38;;;;;;;1.17;1.03;;;;;;;;;;5154017;27;20199;-85
2023/08/27 10:10:09;;;;;;;0.63;0.63;;;;;;;;;;5154102;27;20205;-85
2023/08/27 10:12:37;;;;;;;4.40;1.30;;;;;;;;;;5154132;27;20220;-87
2023/08/27 10:15:06;;;;;;;4.13;1.17;;;;;;;;;;5153622;27;20219;-84
2023/08/27 10:17:36;;;;;;;6.73;1.77;;;;;;;;;;5153485;27;20207;-90
2023/08/27 10:20:06;;;;;;;0.37;0.37;;;;;;;;;;5157182;27;20203;-92
2023/08/27 10:22:37;;;;;;;0.40;0.40;;;;;;;;;;5160886;27;20218;-93
2023/08/27 10:25:07;;;;;;;0.40;0.40;;;;;;;;;;5162277;27;20202;-92
2023/08/27 10:27:37;;;;;;;0.40;0.40;;;;;;;;;;5161490;27;20202;-92
2023/08/27 10:30:09;;;;;;;0.40;0.40;;;;;;;;;;5157905;27;20235;-92
2023/08/27 10:32:38;;;;;;;0.40;0.40;;;;;;;;;;5157834;27;20289;-86
2023/08/27 10:35:07;;;;;;;0.40;0.40;;;;;;;;;;5157975;27;20315;-92
2023/08/27 10:37:36;;;;;;;0.40;0.40;;;;;;;;;;5156778;27;20301;-90
2023/08/27 10:40:11;;;;;;;0.40;0.40;;;;;;;;;;5156325;27;20205;-91
2023/08/27 10:42:43;;;;;;;0.40;0.40;;;;;;;;;;5154822;27;20216;-91
2023/08/27 10:45:21;;;;;;;0.40;0.40;;;;;;;;;;5154740;27;20196;-91
2023/08/27 10:48:05;;;;;;;0.40;0.40;;;;;;;;;;5155098;27;20208;-91
2023/08/27 10:50:51;;;;;;;0.40;0.40;;;;;;;;;;5151493;27;20269;-94
2023/08/27 10:53:48;;;;;;;0.40;0.40;;;;;;;;;;5151928;27;20256;-94
2023/08/27 10:56:36;;;;;;;0.40;0.40;;;;;;;;;;5155513;27;20455;-93
2023/08/27 11:02:18;;;;;;;0.40;0.40;;;;;;;;;;5157253;27;20307;-91
2023/08/27 11:04:49;;;;;;;0.40;0.40;;;;;;;;;;5155203;27;20197;-93
2023/08/27 11:07:19;;;;;;;0.40;0.40;;;;;;;;;;5154439;27;20208;-90
2023/08/27 11:09:48;;;;;;;0.40;0.40;;;;;;;;;;5154172;27;20201;-87
2023/08/27 11:12:27;;;;;;;0.40;0.40;;;;;;;;;;5153194;27;20300;-90
2023/08/27 11:15:13;;;;;;;0.40;0.40;;;;;;;;;;5154243;27;20220;-88
2023/08/27 11:17:42;;;;;;;0.40;0.40;;;;;;;;;;5154603;27;20210;-91
2023/08/27 11:20:28;;;;;;;0.40;0.40;;;;;;;;;;5160323;27;20202;-89
2023/08/27 11:22:57;;;;;;;0.40;0.40;;;;;;;;;;5157451;27;20185;-91
2023/08/27 11:25:27;;;;;;;0.40;0.40;;;;;;;;;;5155845;27;20206;-93
2023/08/27 11:27:58;;;;;;;0.40;0.40;;;;;;;;;;5156217;27;20254;-94
2023/08/27 11:30:29;;;;;;;0.40;0.40;;;;;;;;;;5156080;27;20264;-89
2023/08/27 11:32:58;;;;;;;0.40;0.40;;;;;;;;;;5155401;27;20198;-87
2023/08/27 11:35:27;;;;;;;0.40;0.40;;;;;;;;;;5153281;27;20243;-87
2023/08/27 11:37:56;;;;;;;0.30;0.30;;;;;;;;;;5152909;27;20206;-87
2023/08/27 11:40:26;;;;;;;0.40;0.40;;;;;;;;;;5152747;27;20192;-87
2023/08/27 11:42:56;;;;;;;0.40;0.40;;;;;;;;;;5152966;27;20207;-87
2023/08/27 11:45:31;;;;;;;0.40;0.40;;;;;;;;;;5153704;27;20202;-87
2023/08/27 11:48:04;;;;;;;0.33;0.33;;;;;;;;;;5152919;27;20382;-87
2023/08/27 11:50:33;;;;;;;0.33;0.33;;;;;;;;;;5153081;27;20201;-87
2023/08/27 11:53:02;;;;;;;0.30;0.30;;;;;;;;;;5153392;27;20264;-87
2023/08/27 11:55:30;;;;;;;0.30;0.30;;;;;;;;;;5154850;27;20221;-87
2023/08/27 11:57:59;;;;;;;0.40;0.40;;;;;;;;;;5156917;27;20228;-87
2023/08/27 12:00:29;;;;;;;0.30;0.30;;;;;;;;;;5157096;27;20238;-87
2023/08/27 12:02:59;;;;;;;0.30;0.30;;;;;;;;;;5156613;27;20194;-87
2023/08/27 12:05:29;;;;;;;0.30;0.30;;;;;;;;;;5156436;27;20191;-87
2023/08/27 12:07:58;;;;;;;0.30;0.30;;;;;;;;;;5155980;27;20209;-87
2023/08/27 12:10:27;;;;;;;0.30;0.30;;;;;;;;;;5156431;27;20201;-87
2023/08/27 12:12:55;;;;;;;0.30;0.30;;;;;;;;;;5156386;27;20200;-87
2023/08/27 12:15:30;;;;;;;0.30;0.30;;;;;;;;;;5156106;27;20218;-86
2023/08/27 12:18:00;;;;;;;0.30;0.30;;;;;;;;;;5156498;27;20205;-86
2023/08/27 12:20:32;;;;;;;0.30;0.30;;;;;;;;;;5156638;27;20239;-86
2023/08/27 12:23:10;;;;;;;0.30;0.30;;;;;;;;;;5156183;27;20195;-86
2023/08/27 12:25:46;;;;;;;0.30;0.30;;;;;;;;;;5156321;27;20241;-85
2023/08/27 12:28:14;;;;;;;0.40;0.40;;;;;;;;;;5156286;27;20183;-86
2023/08/27 12:30:47;;;;;;;0.30;0.30;;;;;;;;;;5156023;27;20191;-85
2023/08/27 12:33:17;;;;;;;0.30;0.30;;;;;;;;;;5155690;27;20195;-85
2023/08/27 12:35:50;;;;;;;0.30;0.30;;;;;;;;;;5156224;27;20381;-85
2023/08/27 12:38:19;;;;;;;0.30;0.30;;;;;;;;;;5155547;27;20195;-86
2023/08/27 12:40:47;;;;;;;0.53;0.53;;;;;;;;;;5156022;27;20271;-86
2023/08/27 12:43:16;;;;;;;0.30;0.30;;;;;;;;;;5156056;27;20203;-85
2023/08/27 12:45:44;;;;;;;0.30;0.30;;;;;;;;;;5156142;27;20210;-86
2023/08/27 12:48:13;;;;;;;0.30;0.30;;;;;;;;;;5155324;27;20192;-85
2023/08/27 12:50:43;;;;;;;0.30;0.30;;;;;;;;;;5155291;27;20215;-86
2023/08/27 12:53:11;;;;;;;0.30;0.30;;;;;;;;;;5155911;27;20325;-89
2023/08/27 12:55:40;;;;;;;0.30;0.30;;;;;;;;;;5156408;27;20222;-89
2023/08/27 12:58:08;;;;;;;0.30;0.30;;;;;;;;;;5157230;27;20199;-90
2023/08/27 13:00:37;;;;;;;0.30;0.30;;;;;;;;;;5156980;27;20203;-89
2023/08/27 13:03:06;;;;;;;0.30;0.30;;;;;;;;;;5155975;27;20191;-89
2023/08/27 13:05:35;;;;;;;0.40;0.40;;;;;;;;;;5155026;27;20179;-89
2023/08/27 13:08:05;;;;;;;0.40;0.40;;;;;;;;;;5155050;27;20206;-88
2023/08/27 13:10:33;;;;;;;0.40;0.40;;;;;;;;;;5155643;27;20199;-88
2023/08/27 13:13:02;;;;;;;0.40;0.40;;;;;;;;;;5155529;27;20213;-88
2023/08/27 13:15:30;;;;;;;0.30;0.30;;;;;;;;;;5155135;27;20232;-88
2023/08/27 13:17:59;;;;;;;0.30;0.30;;;;;;;;;;5155006;27;20225;-88
2023/08/27 13:20:27;;;;;;;0.30;0.30;;;;;;;;;;5155268;27;20198;-88
2023/08/27 13:22:56;;;;;;;0.40;0.40;;;;;;;;;;5155262;27;20202;-87
2023/08/27 13:25:26;;;;;;;0.40;0.40;;;;;;;;;;5154377;27;20198;-87
2023/08/27 13:27:55;;;;;;;0.40;0.40;;;;;;;;;;5155357;27;20206;-86
2023/08/27 13:30:24;;;;;;;0.40;0.40;;;;;;;;;;5154945;27;20226;-86
2023/08/27 13:32:53;;;;;;;0.40;0.40;;;;;;;;;;5154595;27;20187;-86
2023/08/27 13:35:22;;;;;;;0.40;0.40;;;;;;;;;;5154179;27;20276;-85
2023/08/27 13:37:51;;;;;;;0.40;0.40;;;;;;;;;;5154958;27;20199;-86
2023/08/27 13:40:19;;;;;;;0.30;0.30;;;;;;;;;;5154879;27;20204;-86
2023/08/27 13:42:50;;;;;;;0.40;0.40;;;;;;;;;;5154375;27;20221;-86
2023/08/27 13:45:20;;;;;;;0.30;0.30;;;;;;;;;;5154548;27;20197;-86
2023/08/27 13:47:48;;;;;;;0.40;0.40;;;;;;;;;;5154766;27;20202;-85
2023/08/27 13:50:17;;;;;;;0.40;0.40;;;;;;;;;;5153976;27;20203;-85
2023/08/27 13:52:46;;;;;;;0.30;0.30;;;;;;;;;;5153667;27;20282;-86
2023/08/27 13:55:14;;;;;;;0.30;0.30;;;;;;;;;;5154564;27;20195;-85
2023/08/27 13:57:43;;;;;;;0.30;0.30;;;;;;;;;;5154468;27;20225;-86
2023/08/27 14:00:14;;;;;;;0.30;0.30;;;;;;;;;;5153635;27;20195;-85
2023/08/27 14:02:43;;;;;;;0.30;0.30;;;;;;;;;;5154518;27;20199;-85
2023/08/27 14:05:12;;;;;;;0.30;0.30;;;;;;;;;;5154222;27;20310;-86
2023/08/27 14:07:40;;;;;;;0.30;0.30;;;;;;;;;;5153969;27;20193;-85
2023/08/27 14:10:09;;;;;;;0.40;0.40;;;;;;;;;;5153640;27;20251;-85
2023/08/27 14:12:37;;;;;;;0.40;0.40;;;;;;;;;;5154509;27;20209;-85
2023/08/27 14:15:06;;;;;;;0.30;0.30;;;;;;;;;;5153956;27;20194;-85
2023/08/27 14:17:36;;;;;;;0.40;0.40;;;;;;;;;;5152685;27;20237;-85
2023/08/27 14:20:05;;;;;;;0.30;0.30;;;;;;;;;;5153918;27;20272;-85
2023/08/27 14:22:34;;;;;;;0.30;0.30;;;;;;;;;;5153948;27;20252;-85
2023/08/27 14:25:03;;;;;;;0.30;0.30;;;;;;;;;;5153881;27;20191;-85
2023/08/27 14:27:31;;;;;;;0.30;0.30;;;;;;;;;;5153450;27;20191;-85
2023/08/27 14:30:00;;;;;;;0.30;0.30;;;;;;;;;;5153634;27;20195;-85
2023/08/27 14:32:29;;;;;;;0.30;0.30;;;;;;;;;;5154113;27;20199;-85
2023/08/27 14:34:58;;;;;;;0.60;0.60;;;;;;;;;;5153218;27;20325;-87
2023/08/27 14:37:27;;;;;;;0.30;0.30;;;;;;;;;;5153243;27;20218;-89
2023/08/27 14:39:55;;;;;;;0.40;0.40;;;;;;;;;;5154281;27;20209;-89
2023/08/27 14:42:24;;;;;;;0.40;0.40;;;;;;;;;;5153725;27;20250;-88
2023/08/27 14:44:52;;;;;;;1.90;1.90;;;;;;;;;;5153405;27;20198;-88
2023/08/27 14:47:21;;;;;;;0.30;0.30;;;;;;;;;;5153509;27;20264;-88
2023/08/27 14:49:50;;;;;;;0.40;0.40;;;;;;;;;;5153914;27;20214;-88
2023/08/27 14:52:20;;;;;;;0.40;0.40;;;;;;;;;;5153609;27;20216;-88
2023/08/27 14:54:49;;;;;;;0.40;0.40;;;;;;;;;;5152834;27;20238;-88
2023/08/27 14:57:18;;;;;;;0.30;0.30;;;;;;;;;;5153447;27;20231;-88